createdAt,value
2019-04-11T00:01:08.774Z,81.70
2019-04-11T00:03:39.640Z,81.70
2019-04-11T00:06:11.835Z,82.00
2019-04-11T00:08:41.903Z,82.00
2019-04-11T00:11:11.635Z,82.10
2019-04-11T00:13:41.205Z,82.00
2019-04-11T00:16:10.556Z,82.20
2019-04-11T00:18:41.021Z,82.10
2019-04-11T00:21:10.811Z,82.30
2019-04-11T00:23:40.763Z,82.20
2019-04-11T00:26:10.279Z,82.60
2019-04-11T00:28:39.619Z,82.30
2019-04-11T00:31:08.911Z,82.30
2019-04-11T00:33:39.071Z,82.30
2019-04-11T00:36:08.359Z,81.50
2019-04-11T00:38:38.231Z,81.30
2019-04-11T00:41:07.956Z,81.70
2019-04-11T00:43:41.691Z,81.40
2019-04-11T00:46:08.172Z,81.30
2019-04-11T00:48:37.716Z,81.60
2019-04-11T00:51:07.758Z,81.60
2019-04-11T00:53:38.238Z,81.40
2019-04-11T00:56:08.186Z,81.80
2019-04-11T00:58:38.675Z,82.20
2019-04-11T01:01:09.330Z,82.10
2019-04-11T01:03:39.422Z,82.20
2019-04-11T01:06:09.984Z,81.90
2019-04-11T01:08:39.930Z,81.90
2019-04-11T01:11:09.918Z,82.10
2019-04-11T01:13:47.324Z,82.10
2019-04-11T01:16:23.755Z,82.10
2019-04-11T01:18:54.035Z,82.00
2019-04-11T01:21:24.285Z,81.90
2019-04-11T01:23:53.460Z,82.30
2019-04-11T01:26:23.299Z,82.80
2019-04-11T01:28:55.392Z,83.00
2019-04-11T01:31:27.346Z,83.40
2019-04-11T01:33:56.584Z,83.30
2019-04-11T01:36:26.957Z,83.30
2019-04-11T01:38:59.007Z,83.10
2019-04-11T01:41:28.847Z,83.40
2019-04-11T01:44:02.210Z,83.60
2019-04-11T01:46:29.831Z,83.30
2019-04-11T01:49:08.108Z,83.70
2019-04-11T01:51:37.990Z,83.80
2019-04-11T01:54:07.770Z,83.90
2019-04-11T01:56:37.127Z,83.80
2019-04-11T01:59:07.003Z,83.70
2019-04-11T02:01:43.192Z,83.40
2019-04-11T02:04:30.072Z,83.70
2019-04-11T02:07:00.381Z,83.60
2019-04-11T02:09:30.396Z,83.40
2019-04-11T02:11:59.753Z,83.40
2019-04-11T02:14:29.267Z,83.70
2019-04-11T02:16:59.303Z,83.90
2019-04-11T02:19:28.997Z,84.10
2019-04-11T02:22:13.847Z,83.90
2019-04-11T02:24:52.253Z,84.00
2019-04-11T02:27:25.882Z,84.80
2019-04-11T02:29:55.396Z,84.50
2019-04-11T02:32:27.109Z,84.70
2019-04-11T02:34:59.153Z,85.10
2019-04-11T02:37:29.212Z,85.20
2019-04-11T02:40:00.340Z,85.40
2019-04-11T02:42:30.752Z,85.60
2019-04-11T02:45:16.525Z,85.40
2019-04-11T02:47:33.306Z,85.20
2019-04-11T02:50:03.658Z,85.40
2019-04-11T02:52:33.536Z,85.40
2019-04-11T02:55:05.631Z,85.20
2019-04-11T02:57:36.244Z,85.20
2019-04-11T03:00:06.510Z,85.20
2019-04-11T03:02:37.015Z,85.20
2019-04-11T03:05:07.138Z,85.30
2019-04-11T03:07:38.109Z,85.10
2019-04-11T03:10:11.496Z,85.10
2019-04-11T03:12:40.399Z,85.20
2019-04-11T03:15:28.976Z,85.30
2019-04-11T03:17:43.916Z,85.50
2019-04-11T03:20:23.135Z,85.10
2019-04-11T03:22:44.695Z,85.20
2019-04-11T03:25:13.796Z,85.50
2019-04-11T03:27:43.381Z,85.40
2019-04-11T03:30:21.008Z,86.00
2019-04-11T03:33:46.954Z,86.10
2019-04-11T03:36:07.618Z,86.00
2019-04-11T03:38:12.385Z,86.00
2019-04-11T03:40:38.655Z,86.20
2019-04-11T03:43:07.431Z,86.40
2019-04-11T03:45:46.731Z,86.60
2019-04-11T03:48:10.165Z,86.60
2019-04-11T03:50:30.626Z,86.50
2019-04-11T03:52:59.462Z,86.60
2019-04-11T03:55:30.713Z,86.70
2019-04-11T03:58:01.304Z,87.20
2019-04-11T04:00:35.947Z,87.10
2019-04-11T04:03:03.749Z,87.00
2019-04-11T04:05:36.513Z,87.50
2019-04-11T04:08:06.103Z,87.60
2019-04-11T04:10:37.239Z,87.90
2019-04-11T04:13:13.260Z,87.90
2019-04-11T04:16:01.914Z,88.30
2019-04-11T04:18:25.092Z,88.50
2019-04-11T04:21:15.545Z,88.80
2019-04-11T04:23:49.492Z,88.60
2019-04-11T04:26:19.306Z,88.50
2019-04-11T04:28:49.173Z,88.70
2019-04-11T04:31:18.883Z,88.90
2019-04-11T04:33:48.776Z,88.80
2019-04-11T04:36:19.601Z,89.00
2019-04-11T04:38:49.456Z,88.90
2019-04-11T04:41:30.837Z,89.00
2019-04-11T04:43:53.537Z,88.90
2019-04-11T04:46:39.703Z,89.20
2019-04-11T04:48:56.019Z,89.60
2019-04-11T04:51:26.788Z,89.80
2019-04-11T04:53:57.920Z,89.90
2019-04-11T04:56:31.443Z,90.00
2019-04-11T04:58:58.955Z,89.70
2019-04-11T05:01:29.018Z,89.70
2019-04-11T05:03:59.341Z,89.70
2019-04-11T05:06:28.933Z,89.50
2019-04-11T05:09:00.056Z,89.30
2019-04-11T05:11:30.508Z,89.00
2019-04-11T05:14:00.905Z,88.80
2019-04-11T05:16:30.363Z,89.00
2019-04-11T05:19:00.803Z,89.20
2019-04-11T05:21:30.161Z,89.30
2019-04-11T05:23:59.409Z,89.20
2019-04-11T05:26:28.819Z,89.00
2019-04-11T05:28:59.070Z,88.90
2019-04-11T05:31:28.727Z,88.50
2019-04-11T05:33:58.000Z,88.30
2019-04-11T05:36:28.308Z,87.80
2019-04-11T05:38:58.248Z,88.20
2019-04-11T05:41:27.726Z,88.20
2019-04-11T05:44:00.877Z,87.70
2019-04-11T05:46:35.417Z,87.50
2019-04-11T05:49:24.849Z,87.30
2019-04-11T05:52:01.942Z,87.50
2019-04-11T05:54:39.972Z,87.40
2019-04-11T05:57:09.016Z,87.10
2019-04-11T05:59:39.112Z,87.00
2019-04-11T06:02:22.007Z,87.00
2019-04-11T06:04:57.733Z,87.00
2019-04-11T06:07:41.118Z,86.80
2019-04-11T06:10:19.920Z,86.50
2019-04-11T06:13:16.439Z,86.50
2019-04-11T06:15:51.590Z,86.50
2019-04-11T06:18:45.445Z,85.90
2019-04-11T06:21:26.165Z,86.00
2019-04-11T06:24:18.987Z,85.80
2019-04-11T06:27:02.046Z,85.90
2019-04-11T06:29:54.839Z,86.30
2019-04-11T06:32:52.729Z,86.00
2019-04-11T06:35:48.706Z,86.30
2019-04-11T06:38:58.685Z,86.20
2019-04-11T06:41:47.066Z,85.80
2019-04-11T06:44:54.900Z,86.10
2019-04-11T06:47:38.849Z,85.60
2019-04-11T06:50:25.141Z,86.00
2019-04-11T06:52:58.136Z,85.50
2019-04-11T06:55:47.295Z,84.80
2019-04-11T06:58:25.901Z,85.20
2019-04-11T07:01:03.428Z,83.30
2019-04-11T07:03:44.953Z,83.50
2019-04-11T07:06:21.775Z,82.30
2019-04-11T07:09:16.617Z,80.70
2019-04-11T07:11:52.677Z,80.10
2019-04-11T07:14:31.138Z,79.20
2019-04-11T07:17:18.874Z,79.30
2019-04-11T07:20:06.733Z,76.50
2019-04-11T07:22:53.645Z,76.10
2019-04-11T07:26:06.433Z,76.80
2019-04-11T07:29:09.908Z,72.90
2019-04-11T07:31:57.111Z,70.60
2019-04-11T07:34:48.305Z,70.20
2019-04-11T07:37:30.642Z,71.10
2019-04-11T07:40:31.414Z,69.50
2019-04-11T07:43:27.193Z,68.60
2019-04-11T07:46:19.405Z,68.40
2019-04-11T07:49:08.038Z,65.90
2019-04-11T07:51:48.629Z,64.70
2019-04-11T07:54:20.384Z,62.70
2019-04-11T07:57:08.259Z,62.40
2019-04-11T08:00:43.429Z,61.10
2019-04-11T08:03:10.156Z,60.50
2019-04-11T08:09:03.667Z,59.30
2019-04-11T08:15:15.462Z,59.20
2019-04-11T08:18:16.597Z,59.80
2019-04-11T08:21:14.278Z,58.30
2019-04-11T08:23:46.227Z,59.30
2019-04-11T08:26:59.204Z,59.40
2019-04-11T08:29:30.434Z,59.50
2019-04-11T08:33:00.383Z,58.40
2019-04-11T08:35:58.328Z,56.30
2019-04-11T08:38:46.700Z,59.00
2019-04-11T08:41:49.654Z,57.70
2019-04-11T08:44:52.405Z,57.70
2019-04-11T08:47:41.919Z,55.20
2019-04-11T08:54:01.482Z,54.10
2019-04-11T08:56:49.445Z,54.50
2019-04-11T09:00:04.155Z,55.20
2019-04-11T09:03:01.834Z,54.20
2019-04-11T09:06:14.911Z,54.60
2019-04-11T09:09:18.719Z,53.30
2019-04-11T09:12:10.106Z,54.20
2019-04-11T09:15:17.659Z,54.10
2019-04-11T09:18:06.121Z,54.50
2019-04-11T09:20:53.930Z,55.10
2019-04-11T09:23:33.478Z,54.30
2019-04-11T09:26:31.891Z,55.00
2019-04-11T09:29:03.995Z,52.40
2019-04-11T09:32:09.793Z,52.10
2019-04-11T09:34:46.052Z,55.20
2019-04-11T09:37:49.618Z,55.70
2019-04-11T09:40:58.624Z,52.70
2019-04-11T09:43:35.857Z,51.60
2019-04-11T09:47:01.353Z,54.60
2019-04-11T09:49:45.041Z,52.30
2019-04-11T09:52:27.097Z,52.80
2019-04-11T09:55:33.564Z,55.10
2019-04-11T09:58:23.775Z,52.30
2019-04-11T10:01:37.194Z,52.20
2019-04-11T10:04:17.361Z,53.70
2019-04-11T10:07:11.121Z,49.20
2019-04-11T10:10:40.230Z,50.30
2019-04-11T10:13:44.959Z,49.90
2019-04-11T10:16:35.892Z,50.90
2019-04-11T10:19:14.216Z,49.90
2019-04-11T10:21:50.447Z,50.40
2019-04-11T10:24:50.450Z,50.00
2019-04-11T10:27:30.908Z,51.90
2019-04-11T10:30:19.467Z,51.30
2019-04-11T10:32:55.261Z,50.50
2019-04-11T10:35:46.739Z,49.20
2019-04-11T10:38:20.378Z,48.60
2019-04-11T10:41:09.338Z,50.60
2019-04-11T10:43:42.569Z,50.70
2019-04-11T10:46:35.692Z,49.00
2019-04-11T10:49:17.597Z,48.20
2019-04-11T10:51:58.193Z,46.50
2019-04-11T10:54:29.679Z,48.10
2019-04-11T10:57:22.473Z,48.30
2019-04-11T10:59:52.914Z,45.90
2019-04-11T11:02:42.268Z,48.90
2019-04-11T11:05:12.849Z,49.80
2019-04-11T11:07:44.609Z,49.60
2019-04-11T11:10:17.685Z,43.90
2019-04-11T11:13:12.081Z,46.90
2019-04-11T11:15:52.323Z,47.90
2019-04-11T11:19:15.549Z,45.00
2019-04-11T11:21:19.687Z,45.10
2019-04-11T11:24:20.443Z,47.80
2019-04-11T11:26:54.532Z,46.40
2019-04-11T11:29:47.503Z,44.40
2019-04-11T11:32:25.184Z,43.30
2019-04-11T11:35:11.323Z,45.00
2019-04-11T11:37:49.351Z,42.50
2019-04-11T11:40:44.726Z,44.60
2019-04-11T11:43:23.179Z,47.20
2019-04-11T11:49:03.393Z,38.80
2019-04-11T11:52:39.341Z,37.70
2019-04-11T12:08:01.339Z,27.40
2019-04-11T12:14:43.453Z,26.90
2019-04-11T12:17:31.768Z,27.40
2019-04-11T12:20:11.644Z,25.20
2019-04-11T12:22:40.863Z,26.10
2019-04-11T12:25:25.711Z,26.00
2019-04-11T12:28:00.465Z,24.00
2019-04-11T12:30:45.487Z,24.10
2019-04-11T12:33:47.895Z,22.30
2019-04-11T12:36:28.414Z,23.10
2019-04-11T12:39:28.838Z,25.90
2019-04-11T12:42:19.191Z,24.80
2019-04-11T12:45:07.454Z,24.00
2019-04-11T12:47:46.423Z,23.90
2019-04-11T12:50:42.843Z,23.90
2019-04-11T12:53:16.686Z,23.40
2019-04-11T12:55:52.269Z,22.50
2019-04-11T12:58:28.801Z,21.90
2019-04-11T13:01:31.969Z,23.50
2019-04-11T13:04:18.420Z,21.20
2019-04-11T13:06:57.351Z,22.80
2019-04-11T13:09:51.528Z,23.30
2019-04-11T13:12:40.066Z,21.60
2019-04-11T13:15:45.500Z,23.20
2019-04-11T13:18:29.469Z,20.10
2019-04-11T13:21:35.163Z,23.50
2019-04-11T13:24:39.321Z,22.60
2019-04-11T13:27:19.711Z,25.20
2019-04-11T13:30:17.431Z,25.90
2019-04-11T13:33:02.671Z,26.20
2019-04-11T13:36:30.858Z,26.10
2019-04-11T13:39:06.540Z,27.10
2019-04-11T13:41:53.377Z,28.30
2019-04-11T13:44:34.588Z,28.10
2019-04-11T13:47:50.196Z,29.40
2019-04-11T13:50:20.042Z,28.10
2019-04-11T13:53:16.729Z,30.20
2019-04-11T13:55:54.209Z,29.50
2019-04-11T13:58:40.738Z,30.40
2019-04-11T14:01:18.638Z,33.20
2019-04-11T14:04:15.821Z,34.20
2019-04-11T14:06:45.139Z,31.60
2019-04-11T14:09:39.593Z,31.00
2019-04-11T14:12:13.964Z,28.60
2019-04-11T14:15:05.955Z,26.80
2019-04-11T14:17:58.104Z,26.90
2019-04-11T14:20:46.752Z,27.50
2019-04-11T14:23:34.988Z,27.90
2019-04-11T14:26:22.562Z,28.10
2019-04-11T14:29:00.843Z,28.50
2019-04-11T14:31:53.825Z,27.20
2019-04-11T14:34:49.314Z,26.50
2019-04-11T14:37:38.342Z,26.80
2019-04-11T14:40:26.303Z,25.50
2019-04-11T14:43:21.882Z,24.00
2019-04-11T14:46:17.653Z,28.30
2019-04-11T14:48:50.700Z,29.60
2019-04-11T14:51:54.226Z,29.70
2019-04-11T14:54:30.347Z,29.60
2019-04-11T14:57:10.463Z,28.30
2019-04-11T14:59:42.667Z,28.00
2019-04-11T15:02:16.844Z,28.90
2019-04-11T15:05:06.263Z,29.00
2019-04-11T15:07:36.943Z,28.80
2019-04-11T15:10:33.949Z,30.20
2019-04-11T15:13:04.335Z,29.60
2019-04-11T15:15:41.227Z,29.80
2019-04-11T15:18:10.918Z,27.80
2019-04-11T15:21:07.288Z,26.00
2019-04-11T15:23:39.765Z,25.90
2019-04-11T15:26:23.060Z,27.80
2019-04-11T15:28:58.008Z,28.50
2019-04-11T15:31:45.448Z,28.00
2019-04-11T15:34:36.943Z,28.80
2019-04-11T15:37:37.288Z,28.40
2019-04-11T15:40:14.723Z,30.90
2019-04-11T15:43:01.758Z,33.80
2019-04-11T15:46:02.091Z,32.10
2019-04-11T15:49:02.620Z,32.40
2019-04-11T15:51:53.933Z,33.60
2019-04-11T15:54:42.244Z,32.50
2019-04-11T15:57:19.312Z,32.40
2019-04-11T16:00:07.540Z,33.60
2019-04-11T16:02:55.143Z,35.30
2019-04-11T16:05:49.361Z,32.80
2019-04-11T16:08:44.569Z,30.40
2019-04-11T16:11:40.026Z,28.10
2019-04-11T16:14:20.008Z,29.10
2019-04-11T16:17:13.757Z,29.30
2019-04-11T16:20:05.303Z,27.70
2019-04-11T16:23:11.415Z,29.00
2019-04-11T16:25:53.308Z,31.80
2019-04-11T16:28:42.434Z,30.80
2019-04-11T16:31:13.400Z,30.90
2019-04-11T16:34:00.880Z,31.80
2019-04-11T16:36:49.753Z,30.80
2019-04-11T16:39:55.162Z,30.50
2019-04-11T16:42:53.658Z,28.90
2019-04-11T16:45:38.997Z,31.40
2019-04-11T16:48:09.072Z,31.60
2019-04-11T16:50:55.001Z,32.60
2019-04-11T16:53:24.396Z,32.80
2019-04-11T16:56:06.233Z,32.50
2019-04-11T16:58:49.332Z,32.00
2019-04-11T17:01:16.879Z,32.60
2019-04-11T17:03:48.207Z,34.00
2019-04-11T17:06:55.387Z,33.90
2019-04-11T17:09:36.043Z,35.80
2019-04-11T17:12:16.248Z,34.90
2019-04-11T17:14:54.966Z,35.90
2019-04-11T17:17:26.271Z,39.30
2019-04-11T17:19:55.464Z,39.10
2019-04-11T17:22:28.354Z,41.00
2019-04-11T17:24:57.561Z,40.00
2019-04-11T17:27:26.816Z,40.40
2019-04-11T17:29:56.150Z,41.50
2019-04-11T17:32:26.684Z,42.50
2019-04-11T17:34:56.091Z,44.60
2019-04-11T17:37:25.439Z,45.40
2019-04-11T17:39:54.811Z,46.40
2019-04-11T17:42:24.096Z,47.10
2019-04-11T17:44:53.321Z,47.20
2019-04-11T17:47:26.815Z,47.30
2019-04-11T17:49:55.493Z,48.80
2019-04-11T17:52:24.839Z,48.40
2019-04-11T17:54:54.740Z,49.40
2019-04-11T17:57:26.624Z,49.30
2019-04-11T17:59:56.727Z,50.60
2019-04-11T18:02:26.256Z,50.50
2019-04-11T18:04:55.748Z,51.00
2019-04-11T18:07:25.067Z,51.20
2019-04-11T18:09:56.158Z,52.20
2019-04-11T18:12:26.320Z,51.90
2019-04-11T18:14:56.145Z,51.90
2019-04-11T18:17:26.531Z,52.70
2019-04-11T18:19:56.326Z,54.30
2019-04-11T18:22:25.860Z,54.20
2019-04-11T18:24:56.063Z,54.90
2019-04-11T18:27:25.390Z,54.30
2019-04-11T18:29:54.659Z,55.10
2019-04-11T18:34:53.413Z,55.50
2019-04-11T18:37:22.570Z,56.30
2019-04-11T18:39:51.721Z,56.60
2019-04-11T18:42:21.070Z,56.00
2019-04-11T18:44:50.748Z,56.60
2019-04-11T18:47:20.030Z,57.40
2019-04-11T18:49:50.953Z,57.20
2019-04-11T18:52:24.909Z,57.70
2019-04-11T18:54:51.339Z,58.30
2019-04-11T18:57:21.637Z,58.60
2019-04-11T18:59:51.479Z,59.40
2019-04-11T19:02:25.722Z,58.70
2019-04-11T19:04:55.109Z,58.90
2019-04-11T19:07:27.937Z,59.80
2019-04-11T19:10:06.360Z,59.60
2019-04-11T19:12:35.726Z,59.50
2019-04-11T19:15:08.694Z,59.50
2019-04-11T19:17:39.044Z,59.80
2019-04-11T19:20:08.617Z,59.60
2019-04-11T19:22:38.558Z,60.20
2019-04-11T19:25:12.053Z,59.70
2019-04-11T19:27:44.981Z,59.80
2019-04-11T19:30:14.831Z,60.20
2019-04-11T19:32:44.241Z,59.70
2019-04-11T19:35:13.840Z,60.20
2019-04-11T19:37:43.498Z,60.30
2019-04-11T19:40:16.141Z,60.40
2019-04-11T19:42:44.170Z,60.90
2019-04-11T19:45:13.756Z,60.60
2019-04-11T19:47:43.314Z,61.00
2019-04-11T19:50:12.767Z,60.80
2019-04-11T19:52:45.710Z,61.00
2019-04-11T19:55:48.310Z,61.10
2019-04-11T19:58:19.231Z,61.30
2019-04-11T20:00:53.208Z,62.10
2019-04-11T20:03:21.829Z,61.70
2019-04-11T20:05:51.054Z,62.10
2019-04-11T20:08:20.221Z,62.50
2019-04-11T20:10:49.509Z,63.20
2019-04-11T20:13:19.986Z,63.40
2019-04-11T20:15:50.988Z,63.80
2019-04-11T20:18:22.551Z,64.20
2019-04-11T20:20:52.300Z,64.40
2019-04-11T20:23:21.764Z,64.90
2019-04-11T20:25:51.365Z,63.70
2019-04-11T20:28:21.865Z,64.20
2019-04-11T20:30:51.261Z,64.50
2019-04-11T20:33:27.750Z,64.80
2019-04-11T20:35:57.151Z,64.90
2019-04-11T20:38:26.409Z,64.80
2019-04-11T20:40:56.238Z,65.00
2019-04-11T20:43:25.818Z,65.50
2019-04-11T20:45:58.030Z,65.20
2019-04-11T20:48:37.070Z,64.60
2019-04-11T20:51:07.568Z,65.10
2019-04-11T20:53:37.678Z,65.50
2019-04-11T20:56:09.583Z,65.60
2019-04-11T20:58:39.693Z,66.10
2019-04-11T21:01:09.080Z,65.80
2019-04-11T21:03:38.346Z,65.80
2019-04-11T21:06:08.556Z,65.80
2019-04-11T21:08:44.732Z,66.00
2019-04-11T21:11:14.252Z,66.10
2019-04-11T21:13:45.841Z,65.20
2019-04-11T21:16:28.033Z,65.10
2019-04-11T21:19:06.254Z,65.20
2019-04-11T21:21:35.474Z,64.90
2019-04-11T21:24:07.556Z,65.30
2019-04-11T21:26:40.891Z,65.70
2019-04-11T21:29:10.087Z,66.10
2019-04-11T21:31:41.678Z,65.50
2019-04-11T21:34:11.053Z,65.50
2019-04-11T21:36:40.826Z,65.60
2019-04-11T21:39:12.919Z,66.10
2019-04-11T21:41:42.221Z,66.40
2019-04-11T21:44:11.439Z,66.50
2019-04-11T21:46:42.069Z,66.60
2019-04-11T21:49:11.458Z,66.60
2019-04-11T21:51:42.593Z,66.50
2019-04-11T21:54:14.738Z,66.60
2019-04-11T21:56:44.166Z,66.70
2019-04-11T21:59:13.356Z,67.00
2019-04-11T22:01:45.246Z,66.90
2019-04-11T22:04:16.183Z,67.20
2019-04-11T22:06:45.962Z,67.70
2019-04-11T22:09:15.324Z,67.20
2019-04-11T22:11:45.631Z,66.90
2019-04-11T22:14:15.203Z,67.20
2019-04-11T22:16:45.344Z,67.50
2019-04-11T22:19:14.967Z,67.40
2019-04-11T22:21:45.441Z,67.00
2019-04-11T22:24:17.075Z,68.10
2019-04-11T22:26:50.114Z,68.00
2019-04-11T22:29:17.579Z,67.00
2019-04-11T22:31:46.859Z,67.60
2019-04-11T22:34:47.678Z,67.40
2019-04-11T22:37:17.158Z,67.80
2019-04-11T22:39:46.711Z,67.20
2019-04-11T22:42:15.986Z,66.80
2019-04-11T22:44:45.270Z,67.50
2019-04-11T22:47:14.603Z,67.10
2019-04-11T22:49:44.155Z,67.20
2019-04-11T22:52:13.543Z,67.70
2019-04-11T22:54:42.811Z,67.30
2019-04-11T22:57:12.918Z,67.00
2019-04-11T22:59:44.886Z,67.80
2019-04-11T23:02:41.895Z,67.00
2019-04-11T23:05:11.441Z,67.20
2019-04-11T23:07:40.911Z,67.60
2019-04-11T23:10:12.457Z,66.90
2019-04-11T23:12:42.916Z,67.00
2019-04-11T23:15:14.675Z,67.30
2019-04-11T23:17:44.729Z,68.20
2019-04-11T23:20:14.959Z,68.50
2019-04-11T23:22:44.420Z,69.30
2019-04-11T23:25:14.255Z,69.70
2019-04-11T23:27:43.757Z,70.10
2019-04-11T23:30:15.880Z,71.20
2019-04-11T23:32:45.784Z,71.90
2019-04-11T23:35:15.125Z,72.40
2019-04-11T23:37:51.808Z,73.00
2019-04-11T23:40:23.053Z,73.20
2019-04-11T23:42:53.799Z,73.30
2019-04-11T23:45:27.100Z,73.40
2019-04-11T23:47:57.659Z,73.50
2019-04-11T23:50:29.797Z,73.60
2019-04-11T23:52:59.081Z,73.60
2019-04-11T23:55:30.802Z,73.70
2019-04-11T23:58:02.349Z,73.70
